Time;durP1;ratioP1;P1;durP2;ratioP2;P2;SDS_P1;SDS_P2;PMS_P1;PMS_P2;Temp;Humidity;BMP_temperature;BMP_pressure;BME280_temperature;BME280_humidity;BME280_pressure;Samples;Min_cycle;Max_cycle;Signal;HPM_P1;HPM_P2
2022/05/19 00:02:22;;;;;;;;;11.00;11.00;;;;;26.02;51.57;101102.34;5138086;27;45570;-77
2022/05/19 00:04:48;;;;;;;;;11.50;10.00;;;;;25.78;51.01;101049.09;5138489;27;45707;-74
2022/05/19 00:07:15;;;;;;;;;11.00;9.50;;;;;26.20;51.43;101113.88;5137522;27;45369;-75
2022/05/19 00:09:41;;;;;;;;;10.00;10.00;;;;;26.22;51.23;101107.44;5136588;27;45521;-76
2022/05/19 00:12:11;;;;;;;;;12.00;9.00;;;;;26.02;51.04;101064.78;5137019;27;45509;-76
2022/05/19 00:14:37;;;;;;;;;10.50;10.25;;;;;26.37;50.94;101127.16;5137384;27;45441;-76
2022/05/19 00:17:04;;;;;;;;;10.00;10.00;;;;;26.08;50.78;101075.16;5139729;27;45270;-75
2022/05/19 00:19:30;;;;;;;;;10.25;9.75;;;;;26.16;50.73;101083.63;5139007;27;45665;-75
2022/05/19 00:21:55;;;;;;;;;13.50;9.50;;;;;26.38;50.95;101125.34;5116985;27;45596;-75
2022/05/19 00:24:22;;;;;;;;;12.67;10.67;;;;;25.68;51.12;101010.34;5119006;27;45519;-75
2022/05/19 00:26:47;;;;;;;;;8.33;8.33;;;;;26.33;50.93;101125.59;5117761;27;45477;-76
2022/05/19 00:29:13;;;;;;;;;11.33;11.33;;;;;25.67;51.65;101007.72;5119687;27;45375;-78
2022/05/19 00:31:39;;;;;;;;;11.00;11.00;;;;;26.27;51.36;101108.97;5100354;27;45618;-76
2022/05/19 00:34:05;;;;;;;;;15.33;13.00;;;;;26.21;52.20;101107.53;5100353;27;45405;-76
2022/05/19 00:36:31;;;;;;;;;12.67;12.67;;;;;25.88;51.63;101048.59;5118965;27;45385;-76
2022/05/19 00:38:56;;;;;;;;;9.33;9.33;;;;;25.44;51.89;100974.16;5118508;27;45679;-76
2022/05/19 00:41:23;;;;;;;;;10.75;10.00;;;;;25.71;52.21;101023.56;5118726;27;45366;-76
2022/05/19 00:44:04;;;;;;;;;13.00;11.67;;;;;25.65;52.04;101013.19;5118646;27;45269;-77
2022/05/19 00:46:41;;;;;;;;;11.00;10.67;;;;;26.06;52.31;101078.91;5119436;27;45620;-77
2022/05/19 00:49:21;;;;;;;;;14.00;12.00;;;;;25.57;52.29;101007.38;5105592;27;46259;-76
2022/05/19 00:51:48;;;;;;;;;10.67;10.67;;;;;25.75;52.10;101040.38;5140191;27;45327;-76
2022/05/19 00:54:22;;;;;;;;;13.00;12.33;;;;;25.53;52.38;101003.13;5139811;27;45466;-75
2022/05/19 00:56:55;;;;;;;;;13.00;11.00;;;;;25.49;52.65;100985.50;5139910;27;45308;-77
2022/05/19 00:59:41;;;;;;;;;11.00;11.00;;;;;25.47;52.20;100979.38;5139380;27;45571;-76
2022/05/19 01:02:11;;;;;;;;;13.00;12.33;;;;;25.50;52.17;100996.13;5139181;27;45405;-76
2022/05/19 01:04:47;;;;;;;;;15.67;12.67;;;;;25.42;52.59;100986.81;5120633;27;45547;-77
2022/05/19 01:07:20;;;;;;;;;12.33;12.00;;;;;25.27;52.83;100978.69;5139549;27;45357;-77
2022/05/19 01:09:46;;;;;;;;;14.00;14.00;;;;;25.70;53.02;101064.75;5139251;27;46450;-76
2022/05/19 01:12:12;;;;;;;;;16.33;14.00;;;;;25.31;53.80;101011.53;5138409;27;45586;-77
2022/05/19 01:14:39;;;;;;;;;15.33;14.33;;;;;25.44;53.65;101035.81;5140631;27;45375;-77
2022/05/19 01:17:06;;;;;;;;;16.33;13.67;;;;;25.21;54.15;101005.81;5135497;27;45593;-77
2022/05/19 01:19:39;;;;;;;;;13.00;13.00;;;;;25.39;54.03;101050.38;5138787;27;45977;-77
2022/05/19 01:22:21;;;;;;;;;13.00;12.00;;;;;25.38;54.55;101045.94;5137405;27;45772;-79
2022/05/19 01:25:07;;;;;;;;;14.00;14.00;;;;;25.15;54.77;101015.03;5139344;27;45745;-78
2022/05/19 01:27:33;;;;;;;;;15.00;14.00;;;;;24.93;54.54;100985.81;5137759;27;45572;-77
2022/05/19 01:29:59;;;;;;;;;16.67;14.33;;;;;25.17;54.18;101028.31;5137324;27;47009;-77
2022/05/19 01:32:29;;;;;;;;;16.00;15.33;;;;;25.16;55.00;101031.97;5139419;27;45357;-77
2022/05/19 01:34:55;;;;;;;;;18.00;15.00;;;;;24.46;55.01;100910.69;5141726;27;45324;-77
2022/05/19 01:37:21;;;;;;;;;18.33;16.00;;;;;25.25;54.44;101054.75;5142840;27;45719;-78
2022/05/19 01:39:53;;;;;;;;;18.00;15.67;;;;;25.05;55.07;101026.31;5140789;27;45405;-76
2022/05/19 01:42:37;;;;;;;;;16.67;16.33;;;;;25.11;54.73;101028.69;5140655;27;45285;-77
2022/05/19 01:45:36;;;;;;;;;13.00;13.00;;;;;25.20;55.12;101044.28;5142338;27;45158;-76
2022/05/19 01:48:07;;;;;;;;;19.67;16.33;;;;;25.17;55.20;101041.72;5142699;27;45343;-78
2022/05/19 01:50:48;;;;;;;;;18.00;18.00;;;;;25.18;54.69;101049.72;5140584;27;48222;-78
2022/05/19 01:53:39;;;;;;;;;17.33;16.00;;;;;24.83;55.33;100986.44;5142125;27;45680;-78
2022/05/19 01:56:05;;;;;;;;;17.33;14.33;;;;;25.23;55.32;101051.31;5140837;27;45455;-78
2022/05/19 01:58:45;;;;;;;;;15.00;15.00;;;;;25.20;55.60;101054.13;5142046;27;45489;-77
2022/05/19 02:01:14;;;;;;;;;16.00;14.67;;;;;24.86;54.82;100994.28;5142126;27;45538;-78
2022/05/19 02:04:07;;;;;;;;;16.00;15.00;;;;;25.17;55.11;101045.31;5138119;27;45545;-78
2022/05/19 02:06:46;;;;;;;;;14.33;14.33;;;;;24.82;55.27;100988.25;5139846;27;45265;-77
2022/05/19 02:09:18;;;;;;;;;17.00;15.33;;;;;25.12;55.27;101049.16;5142813;27;45345;-77
2022/05/19 02:11:50;;;;;;;;;12.67;12.33;;;;;24.73;55.92;100992.28;5142191;27;46214;-77
2022/05/19 02:14:21;;;;;;;;;12.33;12.33;;;;;24.52;55.40;100959.44;5144607;27;45450;-78
2022/05/19 02:16:48;;;;;;;;;18.00;14.67;;;;;24.97;55.96;101030.28;5143232;27;45576;-78
2022/05/19 02:19:20;;;;;;;;;15.33;13.67;;;;;24.53;55.72;100965.66;5143100;27;45461;-78
2022/05/19 02:21:46;;;;;;;;;14.00;14.00;;;;;24.46;55.83;100956.19;5141594;27;47769;-79
2022/05/19 02:24:17;;;;;;;;;16.00;14.67;;;;;24.57;55.98;100974.41;5147602;27;45466;-78
2022/05/19 02:26:43;;;;;;;;;13.00;13.00;;;;;24.92;55.85;101044.88;5142178;27;45323;-78
2022/05/19 02:29:17;;;;;;;;;15.33;14.67;;;;;24.88;56.36;101037.94;5142095;27;45349;-76
2022/05/19 02:31:44;;;;;;;;;16.00;14.00;;;;;24.83;55.89;101037.31;5141546;27;46458;-78
2022/05/19 02:34:10;;;;;;;;;17.33;15.00;;;;;24.82;56.66;101051.66;5141234;27;45400;-76
2022/05/19 02:36:36;;;;;;;;;15.67;15.67;;;;;24.73;56.79;101056.56;5141834;27;45355;-77
2022/05/19 02:39:03;;;;;;;;;17.00;14.00;;;;;24.72;56.76;101045.91;5140417;27;45461;-77
2022/05/19 02:41:28;;;;;;;;;18.33;15.33;;;;;24.58;56.50;101027.00;5141002;27;46413;-79
2022/05/19 02:43:54;;;;;;;;;13.00;13.00;;;;;24.34;57.11;100998.75;5141961;27;45450;-77
2022/05/19 02:46:19;;;;;;;;;13.33;13.00;;;;;24.59;56.86;101031.44;5142172;27;45575;-77
2022/05/19 02:48:45;;;;;;;;;15.67;14.00;;;;;24.52;56.88;101018.34;5142053;27;45751;-77
2022/05/19 02:51:10;;;;;;;;;12.00;11.00;;;;;24.54;57.03;101016.47;5141807;27;46278;-76
2022/05/19 02:53:36;;;;;;;;;15.67;15.33;;;;;24.26;56.76;100975.97;5141499;27;45386;-75
2022/05/19 02:56:02;;;;;;;;;18.00;16.33;;;;;24.72;56.89;101044.09;5141612;27;45498;-77
2022/05/19 02:58:28;;;;;;;;;17.00;14.33;;;;;24.68;56.95;101049.72;5141485;27;45344;-75
2022/05/19 03:00:53;;;;;;;;;14.67;14.67;;;;;24.44;56.95;101025.00;5140837;27;45445;-75
2022/05/19 03:03:19;;;;;;;;;16.33;15.33;;;;;24.54;57.74;101050.44;5139604;27;45444;-77
2022/05/19 03:05:45;;;;;;;;;16.00;14.33;;;;;24.50;57.74;101054.19;5141239;27;45365;-78
2022/05/19 03:08:11;;;;;;;;;18.67;15.00;;;;;24.32;57.86;101032.75;5141584;27;45461;-79
2022/05/19 03:10:39;;;;;;;;;17.33;13.67;;;;;24.07;57.62;100995.63;5140927;27;46338;-76
2022/05/19 03:13:05;;;;;;;;;16.00;15.00;;;;;23.98;57.91;100981.84;5140717;27;45398;-75
2022/05/19 03:15:33;;;;;;;;;13.00;13.00;;;;;24.53;57.82;101054.03;5140701;27;45346;-76
2022/05/19 03:17:59;;;;;;;;;15.67;14.00;;;;;23.99;57.62;100960.38;5105821;27;45607;-73
2022/05/19 03:20:25;;;;;;;;;12.33;12.00;;;;;24.20;57.48;100995.88;5101338;27;47773;-76
2022/05/19 03:22:50;;;;;;;;;16.00;13.00;;;;;23.82;57.58;100917.56;5120390;27;45360;-75
2022/05/19 03:25:16;;;;;;;;;17.33;15.67;;;;;24.58;57.72;101056.47;5101653;27;45404;-74
2022/05/19 03:27:42;;;;;;;;;17.33;15.67;;;;;24.49;57.66;101025.69;5120422;27;45334;-72
2022/05/19 03:30:12;;;;;;;;;16.33;15.00;;;;;24.63;57.31;101054.41;5119663;27;45432;-74
2022/05/19 03:32:38;;;;;;;;;17.33;16.67;;;;;24.56;57.50;101048.53;5119783;27;45489;-74
2022/05/19 03:35:04;;;;;;;;;15.67;15.67;;;;;24.20;57.93;101013.75;5120428;27;45565;-77
2022/05/19 03:37:30;;;;;;;;;18.33;15.33;;;;;23.99;58.22;100979.13;5120681;27;45218;-78
2022/05/19 03:39:56;;;;;;;;;14.33;14.33;;;;;24.18;58.00;101012.97;5120119;27;45210;-77
2022/05/19 03:42:22;;;;;;;;;16.00;16.00;;;;;23.85;58.39;100965.56;5120117;27;45361;-76
2022/05/19 03:44:47;;;;;;;;;15.67;15.67;;;;;24.04;58.60;101005.66;5119373;27;45422;-76
2022/05/19 03:47:13;;;;;;;;;18.33;16.00;;;;;23.83;58.25;100973.66;5119857;27;45441;-75
2022/05/19 03:49:38;;;;;;;;;17.67;14.33;;;;;24.24;58.37;101050.13;5119490;27;45315;-79
2022/05/19 03:52:05;;;;;;;;;16.33;16.33;;;;;23.21;58.97;100890.22;5100584;27;45596;-77
2022/05/19 03:54:30;;;;;;;;;18.00;16.00;;;;;23.36;58.97;100935.84;5119800;27;45349;-77
2022/05/19 03:56:56;;;;;;;;;19.00;17.67;;;;;23.57;59.53;100963.34;5101728;27;45402;-77
2022/05/19 03:59:21;;;;;;;;;15.33;15.33;;;;;24.02;59.10;101048.53;5120718;27;45514;-79
2022/05/19 04:01:47;;;;;;;;;16.00;15.00;;;;;23.66;59.41;100989.66;5102475;27;45539;-76
2022/05/19 04:04:13;;;;;;;;;16.67;16.00;;;;;24.03;59.16;101047.56;5101510;27;45365;-76
2022/05/19 04:06:39;;;;;;;;;17.33;15.33;;;;;24.02;59.33;101051.19;5119795;27;45470;-76
2022/05/19 04:09:05;;;;;;;;;16.67;16.67;;;;;23.53;59.34;100980.47;5119263;27;45447;-76
2022/05/19 04:11:32;;;;;;;;;18.00;16.33;;;;;24.02;59.48;101056.53;5119468;27;45436;-78
2022/05/19 04:13:58;;;;;;;;;18.33;18.00;;;;;23.88;59.58;101029.59;5119470;27;45578;-78
2022/05/19 04:16:24;;;;;;;;;16.00;16.00;;;;;23.67;58.90;100996.72;5119457;27;45397;-78
2022/05/19 04:18:49;;;;;;;;;19.00;15.00;;;;;23.35;59.20;100943.00;5100629;27;45609;-78
2022/05/19 04:21:15;;;;;;;;;16.00;14.33;;;;;23.79;59.12;101008.66;5118741;27;45183;-77
2022/05/19 04:23:41;;;;;;;;;15.00;15.00;;;;;24.06;59.04;101047.44;5119226;27;45494;-77
2022/05/19 04:26:07;;;;;;;;;18.33;15.67;;;;;24.05;59.39;101045.69;5119355;27;45415;-76
2022/05/19 04:28:32;;;;;;;;;14.33;12.33;;;;;23.83;59.58;101016.44;5118763;27;45519;-76
2022/05/19 04:31:00;;;;;;;;;16.67;16.67;;;;;23.94;59.28;101047.16;5118874;27;45241;-76
2022/05/19 04:33:26;;;;;;;;;16.67;14.33;;;;;23.63;59.33;101000.47;5119335;27;45313;-78
2022/05/19 04:35:52;;;;;;;;;17.67;16.33;;;;;23.77;59.34;101016.75;5119030;27;45216;-77
2022/05/19 04:38:18;;;;;;;;;18.00;18.00;;;;;23.34;59.65;100967.97;5118594;27;45482;-75
2022/05/19 04:40:49;;;;;;;;;17.33;16.00;;;;;23.86;59.61;101059.09;5118498;27;45339;-75
2022/05/19 04:43:22;;;;;;;;;17.33;17.33;;;;;23.86;59.48;101055.56;5118768;27;45356;-77
2022/05/19 04:45:53;;;;;;;;;15.00;14.00;;;;;23.91;59.66;101053.53;5118889;27;45509;-78
2022/05/19 04:48:19;;;;;;;;;16.00;16.00;;;;;23.44;59.32;100971.97;5118277;27;46051;-78
2022/05/19 04:50:45;;;;;;;;;15.33;15.00;;;;;23.79;59.54;101024.69;5118562;27;45351;-77
2022/05/19 04:53:13;;;;;;;;;15.00;15.00;;;;;23.63;58.95;101001.34;5118519;27;45384;-75
2022/05/19 04:55:39;;;;;;;;;14.67;14.33;;;;;24.02;59.15;101063.72;5118656;27;45520;-75
2022/05/19 04:58:06;;;;;;;;;13.00;13.00;;;;;23.97;58.78;101063.94;5118292;27;45991;-76
2022/05/19 05:00:33;;;;;;;;;16.33;15.00;;;;;23.83;59.30;101051.22;5117093;27;45600;-76
2022/05/19 05:02:58;;;;;;;;;15.33;14.33;;;;;23.58;58.73;101024.75;5136760;27;45495;-78
2022/05/19 05:05:24;;;;;;;;;18.67;16.00;;;;;23.69;58.77;101041.16;5120493;27;45394;-76
2022/05/19 05:07:50;;;;;;;;;14.00;13.00;;;;;23.93;58.84;101070.38;5139047;27;45462;-76
2022/05/19 05:10:15;;;;;;;;;15.00;12.00;;;;;23.83;58.61;101050.38;5138941;27;45441;-76
2022/05/19 05:12:41;;;;;;;;;12.33;12.33;;;;;23.60;58.33;101014.84;5139497;27;45444;-77
2022/05/19 05:15:07;;;;;;;;;15.00;13.67;;;;;24.32;58.24;101113.06;5139397;27;45427;-76
2022/05/19 05:17:33;;;;;;;;;14.00;12.67;;;;;24.39;57.70;101145.72;5139008;27;45392;-77
2022/05/19 05:19:59;;;;;;;;;12.67;12.67;;;;;24.05;57.68;101142.00;5138918;27;45433;-78
2022/05/19 05:22:24;;;;;;;;;16.00;16.00;;;;;24.49;57.59;101175.63;5120251;27;45441;-77
2022/05/19 05:24:50;;;;;;;;;16.33;15.33;;;;;23.66;57.15;101001.19;5119017;27;45482;-76
2022/05/19 05:27:16;;;;;;;;;19.33;14.33;;;;;24.59;56.86;101138.56;5099815;27;47764;-78
2022/05/19 05:29:41;;;;;;;;;15.00;14.67;;;;;24.06;56.88;101062.59;5118320;27;45340;-78
2022/05/19 05:32:07;;;;;;;;;16.67;15.33;;;;;24.07;57.01;101089.28;5118297;27;45459;-79
2022/05/19 05:34:34;;;;;;;;;14.33;14.33;;;;;23.79;56.84;101028.22;5119762;27;45540;-78
2022/05/19 05:37:00;;;;;;;;;13.33;13.33;;;;;24.06;57.01;101060.81;5118625;27;46293;-77
2022/05/19 05:39:26;;;;;;;;;14.00;12.67;;;;;24.58;56.29;101144.84;5117680;27;45429;-78
2022/05/19 05:41:51;;;;;;;;;14.33;14.33;;;;;24.33;56.60;101089.81;5100275;27;45329;-79
2022/05/19 05:44:17;;;;;;;;;11.33;11.33;;;;;24.24;56.02;101075.06;5121854;27;45482;-78
2022/05/19 05:46:42;;;;;;;;;14.33;14.33;;;;;24.05;56.36;101028.78;5121402;27;46593;-77
2022/05/19 05:49:08;;;;;;;;;11.00;11.00;;;;;24.79;56.23;101158.97;5102671;27;45390;-78
2022/05/19 05:51:34;;;;;;;;;13.33;13.33;;;;;24.84;56.28;101152.41;5121865;27;45487;-77
2022/05/19 05:53:59;;;;;;;;;15.33;12.67;;;;;24.37;55.81;101061.06;5121721;27;45387;-77
2022/05/19 05:56:25;;;;;;;;;12.00;12.00;;;;;24.57;55.53;101105.63;5121373;27;46546;-78
2022/05/19 05:58:51;;;;;;;;;14.67;13.00;;;;;24.72;55.92;101128.94;5102933;27;45397;-76
2022/05/19 06:01:19;;;;;;;;;14.33;14.33;;;;;24.89;55.98;101145.03;5121403;27;45363;-75
2022/05/19 06:03:46;;;;;;;;;13.00;13.00;;;;;24.37;55.45;101045.00;5121363;27;45482;-77
2022/05/19 06:06:12;;;;;;;;;14.00;14.00;;;;;24.76;55.52;101101.91;5124639;27;45544;-78
2022/05/19 06:08:38;;;;;;;;;15.00;15.00;;;;;24.37;55.44;101045.00;5140747;27;45217;-77
2022/05/19 06:11:06;;;;;;;;;19.00;16.67;;;;;24.86;55.76;101129.09;5142376;27;45311;-77
2022/05/19 06:13:31;;;;;;;;;17.33;14.33;;;;;24.87;55.79;101144.25;5141797;27;45307;-78
2022/05/19 06:15:57;;;;;;;;;16.00;16.00;;;;;24.72;56.00;101113.72;5142003;27;45430;-78
2022/05/19 06:18:25;;;;;;;;;58.00;44.67;;;;;24.74;56.01;101116.34;5142011;27;45454;-81
2022/05/19 06:20:52;;;;;;;;;28.00;28.00;;;;;24.60;56.25;101094.75;5143052;27;45311;-76
2022/05/19 06:23:18;;;;;;;;;26.33;23.33;;;;;24.51;56.09;101069.31;5144407;27;45239;-77
2022/05/19 06:25:45;;;;;;;;;24.33;22.33;;;;;24.81;55.67;101141.00;5125480;27;47034;-79
2022/05/19 06:28:11;;;;;;;;;19.67;16.67;;;;;24.59;55.64;101098.38;5141803;27;45258;-78
2022/05/19 06:30:37;;;;;;;;;17.67;16.67;;;;;24.92;56.03;101149.38;5148058;27;45310;-81
2022/05/19 06:33:05;;;;;;;;;23.00;18.00;;;;;24.97;55.96;101152.66;5149479;27;45299;-78
2022/05/19 06:35:33;;;;;;;;;17.67;15.67;;;;;24.61;56.10;101101.88;5146180;27;45508;-76
2022/05/19 06:38:00;;;;;;;;;21.33;19.00;;;;;24.84;56.24;101141.69;5138860;27;45401;-77
2022/05/19 06:40:28;;;;;;;;;13.33;13.33;;;;;24.33;56.13;101063.91;5133547;27;45313;-79
2022/05/19 06:42:55;;;;;;;;;17.33;16.00;;;;;23.86;56.33;100980.66;5133796;27;45491;-75
2022/05/19 06:45:26;;;;;;;;;16.00;15.67;;;;;24.85;56.42;101150.63;5123721;27;45561;-76
2022/05/19 06:47:53;;;;;;;;;19.67;17.33;;;;;24.46;56.31;101098.97;5122185;27;45426;-77
2022/05/19 06:50:21;;;;;;;;;17.33;16.67;;;;;24.45;56.17;101081.16;5119590;27;45385;-75
2022/05/19 06:52:53;;;;;;;;;22.00;18.33;;;;;24.84;55.99;101143.53;5121073;27;45473;-75
2022/05/19 06:55:21;;;;;;;;;17.00;14.67;;;;;24.39;55.82;101070.75;5121676;27;45672;-79
2022/05/19 06:57:47;;;;;;;;;24.67;18.67;;;;;24.36;55.80;101062.88;5108392;27;45435;-80
2022/05/19 07:00:17;;;;;;;;;17.67;17.00;;;;;24.90;56.13;101165.50;5122900;27;45393;-75
2022/05/19 07:02:46;;;;;;;;;18.33;16.00;;;;;24.38;56.05;101070.84;5123506;27;45321;-78
2022/05/19 07:05:12;;;;;;;;;21.67;18.00;;;;;24.57;55.78;101102.94;5121892;27;45514;-76
2022/05/19 07:07:38;;;;;;;;;15.67;15.33;;;;;24.75;55.74;101128.81;5126001;27;45502;-79
2022/05/19 07:10:05;;;;;;;;;16.67;15.67;;;;;24.94;55.60;101164.41;5121384;27;45252;-77
2022/05/19 07:12:31;;;;;;;;;15.33;14.33;;;;;24.89;55.58;101154.84;5120904;27;45264;-76
2022/05/19 07:14:56;;;;;;;;;17.33;15.00;;;;;24.88;55.50;101134.38;5120822;27;45576;-75
2022/05/19 07:17:22;;;;;;;;;18.67;18.67;;;;;24.09;55.64;101009.81;5120751;27;45297;-75
2022/05/19 07:22:33;;;;;;;;;77.75;66.00;;;;;25.04;55.60;101154.09;5120363;27;45770;-76
2022/05/19 07:25:01;;;;;;;;;24.33;21.33;;;;;24.55;55.18;101082.44;5101068;27;46992;-77
2022/05/19 07:27:26;;;;;;;;;20.67;18.33;;;;;24.21;55.69;101028.88;5120069;27;45350;-77
2022/05/19 07:29:52;;;;;;;;;20.33;18.00;;;;;25.00;55.48;101160.53;5119917;27;45270;-76
2022/05/19 07:32:18;;;;;;;;;20.00;18.33;;;;;24.98;55.53;101165.97;5120529;27;45503;-76
2022/05/19 07:34:43;;;;;;;;;20.00;17.33;;;;;25.04;55.65;101163.94;5120356;27;45490;-78
2022/05/19 07:37:11;;;;;;;;;17.67;17.67;;;;;25.05;56.03;101165.66;5121353;27;45264;-78
2022/05/19 07:39:37;;;;;;;;;20.00;19.67;;;;;24.84;55.84;101133.66;5120790;27;45316;-81
2022/05/19 07:42:03;;;;;;;;;17.33;16.00;;;;;25.25;56.75;101191.44;5120182;27;45463;-77
2022/05/19 07:44:30;;;;;;;;;21.33;20.33;;;;;24.69;55.60;101076.41;5119817;27;45530;-78
2022/05/19 07:46:56;;;;;;;;;21.33;19.67;;;;;25.36;55.60;101181.91;5118223;27;45563;-80
2022/05/19 07:49:23;;;;;;;;;19.00;16.67;;;;;25.46;55.24;101170.69;5119889;27;45470;-77
2022/05/19 07:51:49;;;;;;;;;17.00;15.67;;;;;25.49;54.94;101181.28;5101449;27;45503;-78
2022/05/19 07:54:22;;;;;;;;;20.33;17.67;;;;;25.38;54.77;101155.88;5119461;27;45508;-79
2022/05/19 07:56:48;;;;;;;;;17.00;15.00;;;;;25.54;54.70;101160.44;5119498;27;45412;-78
2022/05/19 07:59:15;;;;;;;;;18.67;18.00;;;;;25.66;55.00;101161.59;5119566;27;45277;-77
2022/05/19 08:01:42;;;;;;;;;19.00;17.67;;;;;25.44;53.80;101110.91;5120010;27;45231;-79
2022/05/19 08:04:09;;;;;;;;;18.67;14.33;;;;;24.99;54.34;101054.31;5099728;27;47035;-78
2022/05/19 08:06:35;;;;;;;;;18.67;16.67;;;;;25.65;54.09;101151.78;5118261;27;45483;-77
2022/05/19 08:10:20;;;;;;;;;20.00;17.00;;;;;26.09;54.59;101204.88;5101064;27;45471;-78
2022/05/19 08:11:48;;;;;;;;;16.67;16.00;;;;;26.29;54.38;101201.06;5119574;27;45295;-75
2022/05/19 08:16:58;;;;;;;;;14.00;14.00;;;;;26.54;53.41;101192.50;5119183;27;45466;-77
2022/05/19 08:19:24;;;;;;;;;20.00;18.00;;;;;26.78;53.66;101217.09;5118939;27;45418;-75
2022/05/19 08:21:50;;;;;;;;;19.00;17.00;;;;;26.95;52.59;101237.59;5119122;27;45281;-75
2022/05/19 08:24:17;;;;;;;;;16.33;13.00;;;;;27.08;51.75;101233.22;5100179;27;46858;-77
2022/05/19 08:26:42;;;;;;;;;15.67;15.67;;;;;26.83;51.31;101164.78;5121249;27;45337;-75
2022/05/19 08:29:08;;;;;;;;;17.00;16.00;;;;;26.83;51.36;101161.25;5139524;27;45233;-75
2022/05/19 08:31:35;;;;;;;;;18.67;17.33;;;;;27.25;52.67;101216.13;5137471;27;45494;-74
2022/05/19 08:34:03;;;;;;;;;14.00;14.00;;;;;27.07;51.88;101167.84;5138365;27;45714;-76
2022/05/19 08:36:29;;;;;;;;;14.00;14.00;;;;;27.56;51.19;101246.53;5139257;27;45324;-77
2022/05/19 08:38:56;;;;;;;;;15.00;14.67;;;;;27.48;51.06;101223.66;5139312;27;45500;-75
2022/05/19 08:41:40;;;;;;;;;15.00;15.00;;;;;27.45;50.56;101217.56;5120685;27;45502;-75
2022/05/19 08:44:50;;;;;;;;;15.33;13.33;;;;;27.72;50.39;101276.06;5120484;27;46687;-76
2022/05/19 08:47:21;;;;;;;;;19.00;14.33;;;;;27.78;50.03;101292.69;5094598;27;45430;-76
2022/05/19 08:49:48;;;;;;;;;16.25;16.25;;;;;27.81;49.69;101289.81;5127031;27;45178;-75
2022/05/19 08:52:18;;;;;;;;;13.00;13.00;;;;;27.85;49.27;101285.97;5100571;27;45342;-75
2022/05/19 08:54:46;;;;;;;;;13.25;12.00;;;;;27.74;48.65;101274.13;5118419;27;45302;-74
2022/05/19 08:57:21;;;;;;;;;13.50;12.50;;;;;27.87;48.62;101294.84;5099548;27;45389;-73
2022/05/19 09:00:18;;;;;;;;;11.00;10.50;;;;;27.78;47.80;101289.13;5118759;27;45356;-75
2022/05/19 09:03:13;;;;;;;;;13.00;12.50;;;;;27.84;47.19;101300.41;5092505;27;45347;-73
2022/05/19 09:05:58;;;;;;;;;11.00;11.00;;;;;27.95;46.90;101309.66;5117534;27;46221;-73
2022/05/19 09:08:32;;;;;;;;;14.00;11.75;;;;;27.98;46.58;101318.41;5118538;27;45470;-73
2022/05/19 09:11:29;;;;;;;;;14.00;10.75;;;;;28.01;46.67;101328.97;5118684;27;45338;-74
2022/05/19 09:14:05;;;;;;;;;9.25;8.75;;;;;28.05;46.51;101317.06;5089089;27;45344;-74
2022/05/19 09:16:35;;;;;;;;;7.00;6.00;;;;;27.33;46.64;101195.00;5128146;27;45529;-76
2022/05/19 09:19:10;;;;;;;;;11.25;9.00;;;;;28.09;46.40;101315.88;5106825;27;45264;-77
2022/05/19 09:21:38;;;;;;;;;8.00;8.00;;;;;28.03;46.69;101310.06;5118648;27;45436;-75
2022/05/19 09:24:05;;;;;;;;;8.25;8.25;;;;;28.24;46.16;101351.78;5118619;27;45633;-74
2022/05/19 09:26:46;;;;;;;;;10.75;8.50;;;;;28.32;46.06;101352.16;5117908;27;45504;-74
2022/05/19 09:29:19;;;;;;;;;8.25;7.00;;;;;28.34;45.79;101357.47;5118129;27;45361;-76
2022/05/19 09:31:52;;;;;;;;;8.00;6.75;;;;;28.34;44.82;101355.63;5118582;27;45306;-75
2022/05/19 09:34:23;;;;;;;;;7.25;7.00;;;;;28.24;44.19;101340.16;5118587;27;45284;-75
2022/05/19 09:37:14;;;;;;;;;9.00;8.00;;;;;28.20;44.26;101366.41;5103141;27;46822;-78
2022/05/19 09:40:14;;;;;;;;;9.00;7.75;;;;;28.25;43.90;101382.28;5116740;27;45568;-76
2022/05/19 09:42:59;;;;;;;;;9.25;8.00;;;;;28.24;43.86;101385.94;5112216;27;45430;-75
2022/05/19 09:45:29;;;;;;;;;11.00;9.75;;;;;27.99;43.70;101363.22;5118034;27;45477;-75
2022/05/19 09:48:04;;;;;;;;;13.00;11.25;;;;;27.92;43.14;101359.16;5116458;27;46653;-75
2022/05/19 09:50:37;;;;;;;;;11.25;10.00;;;;;27.72;42.89;101332.56;5118817;27;45617;-73
2022/05/19 09:53:05;;;;;;;;;14.75;12.50;;;;;27.92;42.54;101370.78;5138505;27;45500;-75
2022/05/19 09:55:39;;;;;;;;;9.50;9.50;;;;;27.57;42.56;101302.91;5138709;27;45442;-74
2022/05/19 09:58:08;;;;;;;;;11.00;11.00;;;;;28.32;42.58;101421.34;5138617;27;45500;-74
2022/05/19 10:00:49;;;;;;;;;11.50;10.75;;;;;28.20;42.24;101404.13;5119415;27;45412;-74
2022/05/19 10:03:26;;;;;;;;;12.25;10.25;;;;;27.98;41.91;101374.94;5138982;27;46004;-74
2022/05/19 10:05:57;;;;;;;;;17.25;15.50;;;;;27.80;41.51;101357.19;5119739;27;45285;-74
2022/05/19 10:08:39;;;;;;;;;19.75;15.00;;;;;28.25;42.17;101431.63;5138073;27;45465;-74
2022/05/19 10:11:27;;;;;;;;;14.50;14.50;;;;;28.30;42.24;101421.44;5119680;27;45451;-76
2022/05/19 10:14:04;;;;;;;;;13.00;11.00;;;;;28.37;42.62;101426.44;5138402;27;45492;-76
2022/05/19 10:16:49;;;;;;;;;12.25;11.00;;;;;28.21;43.20;101411.22;5138589;27;45510;-74
2022/05/19 10:19:41;;;;;;;;;10.50;10.00;;;;;28.32;43.04;101443.75;5138175;27;45509;-76
2022/05/19 10:22:32;;;;;;;;;8.00;8.00;;;;;28.34;42.21;101449.91;5119613;27;45542;-74
2022/05/19 10:25:17;;;;;;;;;6.50;6.50;;;;;28.40;41.73;101469.34;5124266;27;45383;-75
2022/05/19 10:31:13;;;;;;;;;4.25;4.25;;;;;28.22;40.76;101407.59;5142783;27;46502;-77
2022/05/19 10:34:15;;;;;;;;;5.50;5.50;;;;;28.64;40.94;101472.38;5141827;27;45421;-74
2022/05/19 10:36:44;;;;;;;;;6.00;5.25;;;;;28.75;40.52;101467.19;5141961;27;45501;-75
2022/05/19 10:39:42;;;;;;;;;4.25;4.25;;;;;28.82;39.64;101460.44;5142901;27;45472;-75
2022/05/19 10:42:45;;;;;;;;;5.00;5.00;;;;;28.89;39.87;101461.78;5143996;27;45287;-75
2022/05/19 10:45:39;;;;;;;;;6.80;4.20;;;;;28.97;39.16;101461.31;5141830;27;45383;-75
2022/05/19 10:48:12;;;;;;;;;7.75;6.00;;;;;29.00;39.56;101454.84;5142688;27;45388;-74
2022/05/19 10:50:42;;;;;;;;;6.00;6.00;;;;;28.81;38.43;101426.38;5123935;27;45565;-76
2022/05/19 10:53:19;;;;;;;;;3.00;3.00;;;;;28.94;38.95;101465.06;5144589;27;46615;-74
2022/05/19 10:55:59;;;;;;;;;7.00;5.20;;;;;28.93;39.13;101454.41;5146545;27;45377;-75
2022/05/19 10:59:01;;;;;;;;;5.50;5.50;;;;;28.71;39.01;101406.34;5128572;27;45537;-76
2022/05/19 11:01:48;;;;;;;;;3.00;3.00;;;;;29.07;38.74;101467.88;5142455;27;45447;-74
2022/05/19 11:04:47;;;;;;;;;4.75;3.50;;;;;29.05;38.04;101455.44;5127645;27;47908;-76
2022/05/19 11:07:13;;;;;;;;;11.00;11.00;;;;;29.00;38.39;101454.84;5121103;27;45501;-75
2022/05/19 11:09:59;;;;;;;;;37.00;32.33;;;;;28.98;37.99;101454.09;5143366;27;45264;-75
2022/05/19 11:12:50;;;;;;;;;65.67;49.33;;;;;29.00;37.56;101446.75;5142472;27;45279;-76
2022/05/19 11:15:36;;;;;;;;;42.67;35.67;;;;;28.25;38.12;101325.72;5141601;27;46436;-76
2022/05/19 11:18:20;;;;;;;;;45.67;37.00;;;;;28.94;38.32;101448.03;5142033;27;45456;-77
2022/05/19 11:21:03;;;;;;;;;37.00;32.67;;;;;28.91;38.30;101459.00;5141421;27;45488;-76
2022/05/19 11:23:41;;;;;;;;;20.67;20.00;;;;;28.86;37.59;101445.81;5122775;27;45308;-75
2022/05/19 11:26:26;;;;;;;;;53.33;44.00;;;;;28.80;39.71;101448.91;5140907;27;45722;-77
2022/05/19 11:29:13;;;;;;;;;50.33;41.00;;;;;28.79;39.17;101440.94;5141764;27;45735;-75
2022/05/19 11:31:45;;;;;;;;;50.33;41.67;;;;;28.84;39.05;101447.75;5123109;27;45410;-74
2022/05/19 11:34:43;;;;;;;;;39.00;33.00;;;;;28.98;38.31;101451.41;5141455;27;45383;-75
2022/05/19 11:37:35;;;;;;;;;29.33;28.33;;;;;28.78;37.97;101379.88;5121224;27;47585;-75
2022/05/19 11:40:13;;;;;;;;;21.75;21.00;;;;;28.87;37.64;101373.88;5140515;27;45236;-74